Wallington, United Kingdom
Current Conditions -  °F | °C
As of 6:20 PM on Thursday 29 Jan 2015 (Local Time) from EGKB Reporting Station
Broken Clouds Broken Clouds  
Wind Chill: 24°   Ceiling: 400
Heat Index: 32°   Visibility: 6mi
Dew Point: 30°   Wind: 9mph
Humidity: 93%   Direction: 290°WNW
Pressure: 28.85"   Gusts: NA
Location:  51.36°N, 0.15°W
Report Text: EGKB 291820Z 29008KT 260V320 9999 BKN004 00/M01 Q0977 RESN
Loading
Personal Weather Stations






























Interactive Weather Map New forecast layout! Learn more

10-Day Weather Forecast

Advertisements
Track Severe Weather on mobile